createdAt,value
2022-09-11T00:01:19.530Z,0.90
2022-09-11T00:03:46.812Z,1.20
2022-09-11T00:06:20.522Z,1.00
2022-09-11T00:08:56.879Z,1.37
2022-09-11T00:11:23.407Z,1.60
2022-09-11T00:13:52.062Z,2.23
2022-09-11T00:16:21.235Z,0.90
2022-09-11T00:18:48.157Z,0.80
2022-09-11T00:21:15.718Z,1.80
2022-09-11T00:23:42.481Z,1.07
2022-09-11T00:26:09.236Z,1.07
2022-09-11T00:28:36.096Z,1.47
2022-09-11T00:31:05.673Z,1.00
2022-09-11T00:33:34.197Z,1.40
2022-09-11T00:36:02.642Z,2.50
2022-09-11T00:38:31.263Z,1.57
2022-09-11T00:40:59.465Z,1.50
2022-09-11T00:43:26.814Z,1.13
2022-09-11T00:45:57.230Z,1.47
2022-09-11T00:48:27.729Z,1.00
2022-09-11T00:50:55.468Z,1.20
2022-09-11T00:53:25.130Z,1.30
2022-09-11T00:55:55.235Z,1.30
2022-09-11T00:58:26.183Z,1.87
2022-09-11T01:00:55.730Z,2.73
2022-09-11T01:03:22.900Z,1.37
2022-09-11T01:05:51.359Z,2.30
2022-09-11T01:08:17.914Z,1.30
2022-09-11T01:10:54.212Z,1.77
2022-09-11T01:13:33.016Z,2.10
2022-09-11T01:16:08.712Z,2.87
2022-09-11T01:18:41.063Z,2.37
2022-09-11T01:21:29.346Z,2.90
2022-09-11T01:24:11.814Z,1.97
2022-09-11T01:26:50.232Z,2.10
2022-09-11T01:29:21.801Z,2.37
2022-09-11T01:31:56.442Z,4.30
2022-09-11T01:34:30.002Z,2.27
2022-09-11T01:37:01.221Z,2.47
2022-09-11T01:39:32.949Z,2.37
2022-09-11T01:42:03.401Z,2.40
2022-09-11T01:44:35.740Z,2.67
2022-09-11T01:47:05.012Z,2.90
2022-09-11T01:49:36.302Z,2.57
2022-09-11T01:52:06.066Z,2.60
2022-09-11T01:54:36.499Z,2.63
2022-09-11T01:57:08.409Z,3.50
2022-09-11T01:59:42.011Z,2.67
2022-09-11T02:02:12.003Z,2.93
2022-09-11T02:04:42.624Z,3.07
2022-09-11T02:07:14.813Z,2.87
2022-09-11T02:09:46.393Z,3.37
2022-09-11T02:12:16.899Z,3.27
2022-09-11T02:14:48.396Z,3.10
2022-09-11T02:17:21.431Z,3.43
2022-09-11T02:19:47.947Z,3.40
2022-09-11T02:22:14.470Z,3.20
2022-09-11T02:24:40.952Z,3.03
2022-09-11T02:27:10.748Z,3.50
2022-09-11T02:29:37.619Z,3.23
2022-09-11T02:32:06.207Z,3.50
2022-09-11T02:34:36.324Z,3.00
2022-09-11T02:37:20.053Z,3.60
2022-09-11T02:40:04.640Z,3.73
2022-09-11T02:42:42.413Z,3.73
2022-09-11T02:45:21.527Z,4.13
2022-09-11T02:47:55.394Z,3.43
2022-09-11T02:50:30.548Z,3.20
2022-09-11T02:53:04.440Z,4.73
2022-09-11T02:55:44.599Z,3.63
2022-09-11T02:58:16.347Z,3.60
2022-09-11T03:00:42.932Z,3.70
2022-09-11T03:03:10.795Z,3.67
2022-09-11T03:05:37.294Z,4.00
2022-09-11T03:08:03.789Z,3.60
2022-09-11T03:10:30.272Z,4.00
2022-09-11T03:12:56.768Z,4.93
2022-09-11T03:15:23.227Z,4.17
2022-09-11T03:17:49.683Z,4.07
2022-09-11T03:20:17.757Z,3.97
2022-09-11T03:22:44.220Z,4.00
2022-09-11T03:25:11.393Z,4.47
2022-09-11T03:27:38.069Z,4.40
2022-09-11T03:30:05.836Z,4.03
2022-09-11T03:32:32.340Z,4.37
2022-09-11T03:34:58.808Z,4.23
2022-09-11T03:37:26.737Z,4.30
2022-09-11T03:39:53.253Z,4.07
2022-09-11T03:42:19.770Z,4.20
2022-09-11T03:44:46.253Z,4.77
2022-09-11T03:47:12.979Z,4.33
2022-09-11T03:49:39.519Z,4.60
2022-09-11T03:52:06.117Z,4.00
2022-09-11T03:54:34.126Z,4.23
2022-09-11T03:57:00.598Z,4.43
2022-09-11T03:59:27.078Z,4.17
2022-09-11T04:01:53.600Z,4.23
2022-09-11T04:04:20.291Z,4.30
2022-09-11T04:06:46.749Z,4.43
2022-09-11T04:09:13.213Z,4.70
2022-09-11T04:11:41.053Z,4.90
2022-09-11T04:14:08.095Z,4.13
2022-09-11T04:16:34.633Z,4.30
2022-09-11T04:19:01.190Z,4.10
2022-09-11T04:21:27.957Z,4.17
2022-09-11T04:23:55.228Z,4.10
2022-09-11T04:26:23.520Z,4.07
2022-09-11T04:28:51.378Z,4.87
2022-09-11T04:31:20.979Z,4.17
2022-09-11T04:33:47.807Z,4.33
2022-09-11T04:36:18.019Z,4.50
2022-09-11T04:38:44.923Z,3.77
2022-09-11T04:41:11.739Z,4.43
2022-09-11T04:43:39.498Z,5.40
2022-09-11T04:46:11.151Z,3.70
2022-09-11T04:48:37.628Z,3.97
2022-09-11T04:51:06.339Z,4.70
2022-09-11T04:53:33.420Z,4.33
2022-09-11T04:56:04.402Z,4.17
2022-09-11T04:58:30.912Z,4.30
2022-09-11T05:00:57.869Z,4.97
2022-09-11T05:03:25.838Z,4.87
2022-09-11T05:05:52.914Z,4.53
2022-09-11T05:08:19.375Z,5.47
2022-09-11T05:10:45.870Z,4.43
2022-09-11T05:13:12.347Z,5.27
2022-09-11T05:15:38.813Z,5.20
2022-09-11T05:18:05.386Z,5.17
2022-09-11T05:20:33.199Z,4.67
2022-09-11T05:22:59.782Z,5.37
2022-09-11T05:25:28.795Z,5.07
2022-09-11T05:27:55.251Z,5.90
2022-09-11T05:30:21.744Z,5.27
2022-09-11T05:32:52.473Z,4.87
2022-09-11T05:35:18.972Z,5.13
2022-09-11T05:37:46.782Z,5.80
2022-09-11T05:40:13.390Z,5.77
2022-09-11T05:42:39.895Z,5.30
2022-09-11T05:45:07.065Z,6.17
2022-09-11T05:47:33.553Z,5.87
2022-09-11T05:50:00.025Z,5.77
2022-09-11T05:52:27.543Z,5.67
2022-09-11T05:54:55.393Z,5.73
2022-09-11T05:57:21.864Z,5.17
2022-09-11T05:59:48.402Z,5.10
2022-09-11T06:02:14.885Z,5.40
2022-09-11T06:04:41.407Z,5.87
2022-09-11T06:07:07.910Z,5.47
2022-09-11T06:09:34.465Z,5.83
2022-09-11T06:12:02.791Z,6.03
2022-09-11T06:14:29.266Z,6.07
2022-09-11T06:16:55.763Z,5.40
2022-09-11T06:19:22.359Z,5.57
2022-09-11T06:21:48.846Z,5.17
2022-09-11T06:24:15.315Z,5.30
2022-09-11T06:26:41.774Z,5.30
2022-09-11T06:29:09.579Z,7.00
2022-09-11T06:31:36.055Z,6.20
2022-09-11T06:34:02.531Z,6.83
2022-09-11T06:36:28.996Z,6.40
2022-09-11T06:38:56.651Z,6.50
2022-09-11T06:41:24.170Z,6.07
2022-09-11T06:43:51.079Z,5.70
2022-09-11T06:46:21.300Z,6.17
2022-09-11T06:48:49.096Z,6.20
2022-09-11T06:51:17.177Z,5.83
2022-09-11T06:53:44.358Z,6.40
2022-09-11T06:56:12.818Z,6.50
2022-09-11T06:58:39.508Z,6.13
2022-09-11T07:01:07.656Z,5.73
2022-09-11T07:03:35.675Z,5.03
2022-09-11T07:06:02.155Z,5.97
2022-09-11T07:08:28.698Z,5.87
2022-09-11T07:10:55.478Z,6.10
2022-09-11T07:13:21.950Z,6.00
2022-09-11T07:15:48.406Z,5.93
2022-09-11T07:18:15.068Z,6.07
2022-09-11T07:20:42.927Z,6.00
2022-09-11T07:23:09.399Z,5.40
2022-09-11T07:25:36.341Z,5.17
2022-09-11T07:28:02.798Z,5.40
2022-09-11T07:30:29.290Z,6.87
2022-09-11T07:32:55.881Z,6.27
2022-09-11T07:35:22.353Z,5.63
2022-09-11T07:37:51.016Z,5.47
2022-09-11T07:40:17.670Z,5.73
2022-09-11T07:42:44.274Z,5.50
2022-09-11T07:45:11.031Z,5.63
2022-09-11T07:47:37.750Z,5.47
2022-09-11T07:50:05.636Z,5.63
2022-09-11T07:52:32.384Z,5.43
2022-09-11T07:55:00.269Z,5.53
2022-09-11T07:57:26.741Z,5.80
2022-09-11T07:59:53.244Z,5.80
2022-09-11T08:02:19.747Z,5.97
2022-09-11T08:04:46.709Z,5.70
2022-09-11T08:07:13.412Z,6.97
2022-09-11T08:09:39.868Z,6.63
2022-09-11T08:12:07.935Z,5.97
2022-09-11T08:14:35.980Z,6.80
2022-09-11T08:17:02.493Z,7.80
2022-09-11T08:19:28.958Z,6.90
2022-09-11T08:21:55.456Z,7.97
2022-09-11T08:24:21.930Z,7.53
2022-09-11T08:26:49.261Z,7.07
2022-09-11T08:29:17.256Z,6.77
2022-09-11T08:31:43.722Z,8.30
2022-09-11T08:34:10.252Z,6.83
2022-09-11T08:36:36.780Z,6.87
2022-09-11T08:39:03.832Z,10.77
2022-09-11T08:41:36.587Z,7.33
2022-09-11T08:44:06.124Z,7.20
2022-09-11T08:46:36.088Z,7.60
2022-09-11T08:49:06.577Z,7.27
2022-09-11T08:51:33.023Z,7.03
2022-09-11T08:54:00.946Z,6.87
2022-09-11T08:56:30.153Z,6.67
2022-09-11T08:59:13.730Z,6.17
2022-09-11T09:01:48.433Z,6.83
2022-09-11T09:04:29.038Z,7.40
2022-09-11T09:07:02.816Z,7.13
2022-09-11T09:09:39.045Z,8.03
2022-09-11T09:12:13.062Z,7.10
2022-09-11T09:15:05.749Z,7.40
2022-09-11T09:17:38.860Z,6.10
2022-09-11T09:20:10.744Z,6.97
2022-09-11T09:22:43.338Z,6.67
2022-09-11T09:25:12.751Z,6.20
2022-09-11T09:27:44.901Z,7.07
2022-09-11T09:30:15.528Z,6.70
2022-09-11T09:32:48.557Z,6.17
2022-09-11T09:35:20.608Z,6.03
2022-09-11T09:37:47.146Z,6.60
2022-09-11T09:40:16.395Z,6.77
2022-09-11T09:43:10.252Z,6.73
2022-09-11T09:45:54.229Z,6.43
2022-09-11T09:48:22.150Z,6.10
2022-09-11T09:50:48.748Z,6.43
2022-09-11T09:53:19.807Z,5.13
2022-09-11T09:55:46.649Z,4.93
2022-09-11T09:58:13.247Z,5.70
2022-09-11T10:00:40.680Z,6.73
2022-09-11T10:03:18.728Z,6.20
2022-09-11T10:05:48.441Z,5.30
2022-09-11T10:08:26.274Z,6.90
2022-09-11T10:10:55.009Z,5.70
2022-09-11T10:13:23.143Z,5.93
2022-09-11T10:15:50.641Z,6.30
2022-09-11T10:18:39.054Z,7.00
2022-09-11T10:21:22.385Z,6.03
2022-09-11T10:23:53.294Z,6.03
2022-09-11T10:26:25.432Z,5.53
2022-09-11T10:28:53.774Z,6.50
2022-09-11T10:31:20.684Z,6.03
2022-09-11T10:33:53.752Z,6.50
2022-09-11T10:36:24.257Z,7.40
2022-09-11T10:38:51.624Z,6.47
2022-09-11T10:41:20.611Z,5.33
2022-09-11T10:43:52.713Z,6.77
2022-09-11T10:46:31.155Z,6.20
2022-09-11T10:49:00.027Z,5.10
2022-09-11T10:51:30.465Z,5.73
2022-09-11T10:54:05.098Z,5.20
2022-09-11T10:56:35.836Z,5.93
2022-09-11T10:59:06.710Z,7.37
2022-09-11T11:01:33.410Z,6.10
2022-09-11T11:03:59.931Z,5.67
2022-09-11T11:06:41.709Z,5.47
2022-09-11T11:09:22.788Z,5.80
2022-09-11T11:12:04.654Z,4.83
2022-09-11T11:14:48.389Z,7.93
2022-09-11T11:17:21.692Z,6.80
2022-09-11T11:20:25.688Z,5.97
2022-09-11T11:23:12.224Z,5.20
2022-09-11T11:25:48.534Z,5.07
2022-09-11T11:28:39.052Z,5.73
2022-09-11T11:31:21.720Z,4.77
2022-09-11T11:34:02.965Z,4.80
2022-09-11T11:36:34.570Z,4.10
2022-09-11T11:39:17.761Z,4.20
2022-09-11T11:41:48.098Z,3.50
2022-09-11T11:44:22.263Z,5.50
2022-09-11T11:46:52.123Z,4.60
2022-09-11T11:49:23.741Z,5.03
2022-09-11T11:51:54.966Z,5.10
2022-09-11T11:54:25.383Z,4.97
2022-09-11T11:56:53.726Z,5.17
2022-09-11T11:59:24.598Z,4.40
2022-09-11T12:01:55.820Z,4.43
2022-09-11T12:04:39.152Z,4.13
2022-09-11T12:07:15.075Z,4.37
2022-09-11T12:09:48.740Z,4.57
2022-09-11T12:12:16.638Z,4.50
2022-09-11T12:14:49.319Z,4.40
2022-09-11T12:17:18.508Z,6.60
2022-09-11T12:20:28.785Z,4.80
2022-09-11T12:22:55.343Z,4.33
2022-09-11T12:25:59.258Z,4.23
2022-09-11T12:28:27.094Z,4.13
2022-09-11T12:30:57.633Z,4.90
2022-09-11T12:33:52.761Z,4.43
2022-09-11T12:36:22.928Z,4.80
2022-09-11T12:38:54.649Z,4.13
2022-09-11T12:41:26.856Z,5.10
2022-09-11T12:43:54.932Z,4.73
2022-09-11T12:47:13.680Z,5.47
2022-09-11T12:49:42.490Z,6.43
2022-09-11T12:52:25.883Z,6.37
2022-09-11T12:54:53.406Z,7.50
2022-09-11T12:57:27.071Z,7.30
2022-09-11T12:59:57.177Z,6.30
2022-09-11T13:02:28.388Z,6.00
2022-09-11T13:04:55.654Z,6.23
2022-09-11T13:07:27.605Z,5.90
2022-09-11T13:09:54.444Z,6.27
2022-09-11T13:12:49.427Z,5.90
2022-09-11T13:15:33.287Z,5.40
2022-09-11T13:17:59.823Z,4.80
2022-09-11T13:20:26.364Z,6.03
2022-09-11T13:22:58.160Z,6.30
2022-09-11T13:25:25.441Z,5.23
2022-09-11T13:27:54.397Z,5.37
2022-09-11T13:30:22.878Z,5.50
2022-09-11T13:33:03.469Z,5.73
2022-09-11T13:35:30.087Z,5.70
2022-09-11T13:37:58.323Z,5.93
2022-09-11T13:40:28.347Z,5.73
2022-09-11T13:42:55.997Z,5.50
2022-09-11T13:45:23.898Z,5.03
2022-09-11T13:47:51.768Z,5.17
2022-09-11T13:50:18.862Z,4.70
2022-09-11T13:52:46.013Z,5.10
2022-09-11T13:55:16.594Z,4.63
2022-09-11T13:57:52.161Z,5.00
2022-09-11T14:00:37.298Z,5.10
2022-09-11T14:03:06.003Z,4.57
2022-09-11T14:05:33.752Z,4.53
2022-09-11T14:08:02.124Z,4.80
2022-09-11T14:10:31.828Z,4.80
2022-09-11T14:13:12.603Z,3.83
2022-09-11T14:15:42.366Z,3.93
2022-09-11T14:18:18.184Z,3.67
2022-09-11T14:20:46.266Z,3.50
2022-09-11T14:23:18.428Z,4.17
2022-09-11T14:26:03.918Z,3.67
2022-09-11T14:28:41.384Z,4.00
2022-09-11T14:31:10.293Z,3.60
2022-09-11T14:33:38.242Z,3.43
2022-09-11T14:36:07.981Z,3.67
2022-09-11T14:38:34.643Z,3.67
2022-09-11T14:41:02.930Z,3.50
2022-09-11T14:43:31.746Z,3.60
2022-09-11T14:45:59.330Z,3.80
2022-09-11T14:48:26.906Z,3.73
2022-09-11T14:50:55.353Z,3.10
2022-09-11T14:53:29.664Z,3.63
2022-09-11T14:55:58.131Z,3.47
2022-09-11T14:58:25.142Z,3.30
2022-09-11T15:00:51.733Z,3.60
2022-09-11T15:03:18.337Z,3.13
2022-09-11T15:05:45.860Z,3.30
2022-09-11T15:08:13.884Z,3.67
2022-09-11T15:10:40.375Z,3.57
2022-09-11T15:13:06.879Z,3.47
2022-09-11T15:15:33.436Z,3.60
2022-09-11T15:18:00.009Z,3.60
2022-09-11T15:20:26.782Z,3.53
2022-09-11T15:22:53.734Z,3.53
2022-09-11T15:25:21.823Z,3.33
2022-09-11T15:27:49.797Z,3.17
2022-09-11T15:30:16.363Z,3.40
2022-09-11T15:32:42.831Z,3.27
2022-09-11T15:35:09.676Z,3.57
2022-09-11T15:37:36.160Z,3.30
2022-09-11T15:40:02.904Z,3.47
2022-09-11T15:42:36.352Z,2.90
2022-09-11T15:45:06.832Z,3.30
2022-09-11T15:47:33.341Z,2.70
2022-09-11T15:49:59.840Z,2.30
2022-09-11T15:52:26.329Z,2.93
2022-09-11T15:54:52.778Z,2.67
2022-09-11T15:57:19.706Z,2.70
2022-09-11T15:59:47.544Z,3.30
2022-09-11T16:02:14.107Z,2.90
2022-09-11T16:04:40.629Z,3.10
2022-09-11T16:07:07.107Z,2.53
2022-09-11T16:09:33.596Z,3.87
2022-09-11T16:12:00.855Z,2.77
2022-09-11T16:14:29.179Z,2.70
2022-09-11T16:16:58.917Z,2.40
2022-09-11T16:19:27.307Z,2.63
2022-09-11T16:21:54.868Z,2.93
2022-09-11T16:24:21.655Z,3.33
2022-09-11T16:26:48.138Z,2.50
2022-09-11T16:29:15.075Z,2.77
2022-09-11T16:31:41.707Z,2.63
2022-09-11T16:34:10.083Z,2.90
2022-09-11T16:36:37.006Z,3.17
2022-09-11T16:39:04.018Z,3.10
2022-09-11T16:41:30.667Z,2.77
2022-09-11T16:43:57.168Z,3.60
2022-09-11T16:46:24.935Z,3.27
2022-09-11T16:48:54.378Z,2.90
2022-09-11T16:51:23.818Z,2.80
2022-09-11T16:53:50.900Z,2.77
2022-09-11T16:56:19.248Z,2.60
2022-09-11T16:58:46.035Z,2.53
2022-09-11T17:01:14.010Z,3.23
2022-09-11T17:03:41.958Z,3.50
2022-09-11T17:06:09.065Z,2.97
2022-09-11T17:08:37.383Z,2.97
2022-09-11T17:11:04.027Z,3.00
2022-09-11T17:13:30.531Z,3.27
2022-09-11T17:16:01.526Z,3.20
2022-09-11T17:18:28.381Z,2.87
2022-09-11T17:20:55.497Z,4.23
2022-09-11T17:23:22.049Z,3.10
2022-09-11T17:25:49.889Z,2.47
2022-09-11T17:28:16.934Z,3.60
2022-09-11T17:30:43.402Z,2.73
2022-09-11T17:33:09.915Z,3.00
2022-09-11T17:35:36.432Z,3.17
2022-09-11T17:38:03.021Z,2.87
2022-09-11T17:40:29.725Z,3.40
2022-09-11T17:42:57.605Z,3.00
2022-09-11T17:45:24.089Z,3.00
2022-09-11T17:47:50.839Z,3.33
2022-09-11T17:50:17.674Z,3.27
2022-09-11T17:52:44.233Z,2.87
2022-09-11T17:55:10.765Z,3.00
2022-09-11T17:57:37.255Z,4.53
2022-09-11T18:00:06.053Z,3.13
2022-09-11T18:02:32.591Z,3.53
2022-09-11T18:04:59.064Z,3.53
2022-09-11T18:07:25.538Z,3.30
2022-09-11T18:09:56.213Z,2.83
2022-09-11T18:12:22.937Z,3.30
2022-09-11T18:14:49.409Z,3.40
2022-09-11T18:17:17.259Z,3.00
2022-09-11T18:19:43.754Z,3.20
2022-09-11T18:22:10.242Z,3.97
2022-09-11T18:24:36.728Z,3.90
2022-09-11T18:27:03.272Z,2.87
2022-09-11T18:29:30.328Z,2.80
2022-09-11T18:31:57.470Z,3.40
2022-09-11T18:34:27.054Z,3.20
2022-09-11T18:36:53.880Z,3.33
2022-09-11T18:39:21.051Z,3.83
2022-09-11T18:41:48.766Z,3.00
2022-09-11T18:44:19.671Z,3.00
2022-09-11T18:46:46.833Z,3.03
2022-09-11T18:49:14.662Z,3.50
2022-09-11T18:51:42.723Z,4.50
2022-09-11T18:54:12.079Z,3.50
2022-09-11T18:56:38.584Z,3.50
2022-09-11T18:59:05.045Z,3.20
2022-09-11T19:01:31.753Z,3.40
2022-09-11T19:04:00.121Z,3.67
2022-09-11T19:06:28.163Z,3.40
2022-09-11T19:08:56.178Z,4.03
2022-09-11T19:11:25.175Z,3.17
2022-09-11T19:13:53.210Z,4.47
2022-09-11T19:16:21.578Z,3.10
2022-09-11T19:18:48.902Z,3.10
2022-09-11T19:21:17.448Z,3.73
2022-09-11T19:23:46.077Z,2.70
2022-09-11T19:26:18.180Z,3.67
2022-09-11T19:28:46.269Z,3.20
2022-09-11T19:31:14.908Z,3.17
2022-09-11T19:33:42.806Z,3.20
2022-09-11T19:36:13.150Z,3.83
2022-09-11T19:38:40.090Z,3.90
2022-09-11T19:41:07.281Z,3.93
2022-09-11T19:43:36.762Z,4.13
2022-09-11T19:46:04.167Z,4.10
2022-09-11T19:48:31.309Z,4.20
2022-09-11T19:50:58.666Z,3.47
2022-09-11T19:53:27.276Z,3.57
2022-09-11T19:55:53.921Z,3.63
2022-09-11T19:58:23.861Z,4.17
2022-09-11T20:00:52.152Z,4.83
2022-09-11T20:03:18.948Z,3.83
2022-09-11T20:05:46.106Z,3.60
2022-09-11T20:08:16.212Z,3.60
2022-09-11T20:10:45.563Z,3.83
2022-09-11T20:13:12.705Z,4.03
2022-09-11T20:15:40.000Z,3.87
2022-09-11T20:18:08.452Z,3.30
2022-09-11T20:20:36.074Z,3.40
2022-09-11T20:23:02.835Z,3.43
2022-09-11T20:25:29.326Z,3.90
2022-09-11T20:27:55.950Z,4.37
2022-09-11T20:30:22.448Z,4.60
2022-09-11T20:32:49.095Z,5.27
2022-09-11T20:35:17.255Z,4.63
2022-09-11T20:37:43.780Z,4.90
2022-09-11T20:40:11.382Z,4.57
2022-09-11T20:42:38.028Z,4.10
2022-09-11T20:45:05.283Z,3.97
2022-09-11T20:47:31.784Z,4.23
2022-09-11T20:49:58.353Z,3.83
2022-09-11T20:52:26.292Z,4.20
2022-09-11T20:54:52.755Z,3.67
2022-09-11T20:57:19.207Z,3.60
2022-09-11T20:59:45.780Z,3.60
2022-09-11T21:02:12.658Z,3.60
2022-09-11T21:04:39.150Z,3.97
2022-09-11T21:07:05.917Z,4.13
2022-09-11T21:09:33.763Z,3.70
2022-09-11T21:12:00.280Z,3.33
2022-09-11T21:14:26.835Z,3.80
2022-09-11T21:16:53.374Z,3.20
2022-09-11T21:19:19.840Z,4.17
2022-09-11T21:21:46.365Z,4.10
2022-09-11T21:24:13.833Z,3.70
2022-09-11T21:26:42.048Z,3.40
2022-09-11T21:29:09.157Z,4.03
2022-09-11T21:31:36.032Z,3.93
2022-09-11T21:34:02.629Z,3.60
2022-09-11T21:36:29.394Z,3.77
2022-09-11T21:38:56.066Z,4.43
2022-09-11T21:41:22.580Z,3.20
2022-09-11T21:43:50.405Z,3.70
2022-09-11T21:46:16.928Z,3.80
2022-09-11T21:48:43.453Z,3.90
2022-09-11T21:51:11.946Z,4.90
2022-09-11T21:53:39.261Z,3.77
2022-09-11T21:56:06.337Z,4.77
2022-09-11T21:58:33.091Z,4.70
2022-09-11T22:01:04.289Z,4.73
2022-09-11T22:03:30.848Z,3.87
2022-09-11T22:05:57.345Z,3.80
2022-09-11T22:08:24.147Z,3.60
2022-09-11T22:10:51.390Z,3.97
2022-09-11T22:13:19.095Z,4.00
2022-09-11T22:15:47.346Z,4.13
2022-09-11T22:18:16.608Z,3.93
2022-09-11T22:20:43.186Z,3.70
2022-09-11T22:23:13.620Z,3.97
2022-09-11T22:25:40.159Z,4.00
2022-09-11T22:28:07.174Z,4.10
2022-09-11T22:30:33.702Z,3.47
2022-09-11T22:33:00.664Z,3.30
2022-09-11T22:35:28.807Z,3.93
2022-09-11T22:37:55.363Z,4.10
2022-09-11T22:40:21.836Z,3.13
2022-09-11T22:42:48.316Z,3.90
2022-09-11T22:45:14.596Z,3.70
2022-09-11T22:47:41.067Z,4.47
2022-09-11T22:50:08.453Z,4.60
2022-09-11T22:52:36.350Z,4.00
2022-09-11T22:55:03.358Z,4.13
2022-09-11T22:57:29.908Z,5.43
2022-09-11T22:59:56.376Z,4.40
2022-09-11T23:02:23.172Z,3.93
2022-09-11T23:04:49.853Z,3.80
2022-09-11T23:07:16.321Z,4.20
2022-09-11T23:09:44.608Z,4.33
2022-09-11T23:12:11.158Z,3.70
2022-09-11T23:14:37.938Z,4.33
2022-09-11T23:17:04.471Z,3.77
2022-09-11T23:19:30.965Z,3.87
2022-09-11T23:21:57.446Z,4.17
2022-09-11T23:24:23.969Z,4.07
2022-09-11T23:26:51.791Z,3.90
2022-09-11T23:29:18.272Z,4.90
2022-09-11T23:31:44.765Z,4.27
2022-09-11T23:34:15.265Z,4.17
2022-09-11T23:36:42.045Z,4.30
2022-09-11T23:39:08.835Z,4.10
2022-09-11T23:41:35.376Z,3.77
2022-09-11T23:44:03.340Z,3.73
2022-09-11T23:46:29.869Z,4.67
2022-09-11T23:48:56.391Z,4.10
2022-09-11T23:51:22.879Z,4.10
2022-09-11T23:53:49.494Z,3.80
2022-09-11T23:56:15.996Z,3.37
2022-09-11T23:58:44.000Z,3.67
